createdAt,value
2019-01-31T00:02:13.826Z,99248.70
2019-01-31T00:07:59.280Z,99252.51
2019-01-31T00:13:28.861Z,99260.05
2019-01-31T00:18:44.001Z,99259.28
2019-01-31T00:24:17.444Z,99253.28
2019-01-31T00:30:23.862Z,99255.78
2019-01-31T00:36:05.274Z,99269.19
2019-01-31T00:41:45.777Z,99273.84
2019-01-31T00:48:01.169Z,99265.66
2019-01-31T00:53:28.756Z,99268.70
2019-01-31T00:58:37.951Z,99271.09
2019-01-31T01:04:46.721Z,99269.73
2019-01-31T01:10:12.554Z,99209.84
2019-01-31T01:16:14.963Z,99263.49
2019-01-31T01:21:50.753Z,99256.00
2019-01-31T01:27:20.585Z,99256.42
2019-01-31T01:33:19.773Z,99248.30
2019-01-31T01:39:24.649Z,99257.92
2019-01-31T01:45:05.532Z,99257.50
2019-01-31T01:50:30.169Z,99267.43
2019-01-31T01:56:32.884Z,99260.06
2019-01-31T02:02:34.772Z,99251.04
2019-01-31T02:07:49.607Z,99242.91
2019-01-31T02:14:05.323Z,99240.84
2019-01-31T02:19:48.442Z,99250.72
2019-01-31T02:24:54.696Z,99239.29
2019-01-31T02:30:41.144Z,99236.17
2019-01-31T02:36:17.059Z,99246.45
2019-01-31T02:42:14.949Z,99238.59
2019-01-31T02:47:55.452Z,99239.89
2019-01-31T02:53:26.204Z,99238.30
2019-01-31T02:59:20.555Z,99233.94
2019-01-31T03:05:16.239Z,99240.39
2019-01-31T03:11:14.927Z,99243.78
2019-01-31T03:17:00.204Z,99237.59
2019-01-31T03:23:03.555Z,99236.70
2019-01-31T03:28:48.997Z,99237.86
2019-01-31T03:34:35.985Z,99228.62
2019-01-31T03:40:10.560Z,99222.22
2019-01-31T03:45:27.663Z,99231.88
2019-01-31T03:51:15.089Z,99223.50
2019-01-31T03:56:54.110Z,99224.45
2019-01-31T04:02:29.835Z,99225.92
2019-01-31T04:07:22.722Z,99226.02
2019-01-31T04:12:15.568Z,99223.33
2019-01-31T04:17:08.407Z,99221.11
2019-01-31T04:22:01.245Z,99225.92
2019-01-31T04:26:54.107Z,99225.42
2019-01-31T04:31:47.108Z,99226.27
2019-01-31T04:36:39.960Z,99229.17
2019-01-31T04:41:32.787Z,99225.91
2019-01-31T04:46:25.740Z,99227.80
2019-01-31T04:51:18.628Z,99228.30
2019-01-31T04:56:11.421Z,99227.59
2019-01-31T05:01:04.377Z,99223.15
2019-01-31T05:05:57.212Z,99222.97
2019-01-31T05:10:50.062Z,99218.31
2019-01-31T05:15:42.926Z,99217.75
2019-01-31T05:20:35.765Z,99211.73
2019-01-31T05:25:28.603Z,99212.14
2019-01-31T05:30:21.448Z,99211.80
2019-01-31T05:35:15.405Z,99220.88
2019-01-31T05:40:11.410Z,99217.55
2019-01-31T05:45:08.287Z,99217.91
2019-01-31T05:50:01.120Z,99215.59
2019-01-31T05:54:53.676Z,99208.52
2019-01-31T05:59:46.519Z,99211.47
2019-01-31T06:04:39.412Z,99209.11
2019-01-31T06:09:32.256Z,99212.17
2019-01-31T06:14:25.091Z,99217.69
2019-01-31T06:19:17.921Z,99216.27
2019-01-31T06:24:10.786Z,99220.13
2019-01-31T06:29:03.620Z,99219.48
2019-01-31T06:33:56.470Z,99214.50
2019-01-31T06:38:49.300Z,99212.33
2019-01-31T06:43:42.132Z,99204.48
2019-01-31T06:48:34.968Z,99208.29
2019-01-31T06:53:27.793Z,99215.66
2019-01-31T06:58:20.629Z,99217.11
2019-01-31T07:03:13.451Z,99222.58
2019-01-31T07:08:06.284Z,99237.76
2019-01-31T07:12:59.117Z,99233.97
2019-01-31T07:17:51.972Z,99243.69
2019-01-31T07:22:44.829Z,99246.77
2019-01-31T07:27:37.648Z,99252.20
2019-01-31T07:32:30.499Z,99247.95
2019-01-31T07:37:23.332Z,99247.09
2019-01-31T07:42:16.156Z,99249.19
2019-01-31T07:47:09.000Z,99254.52
2019-01-31T07:52:01.844Z,99256.49
2019-01-31T07:56:54.710Z,99262.09
2019-01-31T08:01:47.558Z,99250.38
2019-01-31T08:06:40.396Z,99255.31
2019-01-31T08:11:33.311Z,99249.95
2019-01-31T08:16:26.435Z,99250.11
2019-01-31T08:21:19.342Z,99249.28
2019-01-31T08:26:12.175Z,99243.61
2019-01-31T08:31:05.545Z,99246.83
2019-01-31T08:35:58.398Z,99237.80
2019-01-31T08:40:51.248Z,99244.86
2019-01-31T08:45:44.072Z,99243.55
2019-01-31T08:50:36.902Z,99238.90
2019-01-31T08:55:29.751Z,99239.94
2019-01-31T09:00:26.263Z,99240.72
2019-01-31T09:05:19.393Z,99237.47
2019-01-31T09:10:16.406Z,99237.10
2019-01-31T09:15:11.764Z,99234.23
2019-01-31T09:20:07.850Z,99231.13
2019-01-31T09:25:46.545Z,99229.09
2019-01-31T09:31:34.733Z,99231.90
2019-01-31T09:37:59.626Z,99236.94
2019-01-31T09:43:31.729Z,99236.85
2019-01-31T09:49:02.745Z,99241.91
2019-01-31T09:54:59.107Z,99240.42
2019-01-31T10:00:35.862Z,99233.11
2019-01-31T10:06:19.784Z,99224.84
2019-01-31T10:12:18.628Z,99219.53
2019-01-31T10:18:03.693Z,99227.58
2019-01-31T10:23:18.564Z,99223.08
2019-01-31T10:28:53.486Z,99217.15
2019-01-31T10:34:22.283Z,99224.63
2019-01-31T10:39:39.551Z,99214.13
2019-01-31T10:45:14.767Z,99213.63
2019-01-31T10:50:53.986Z,99207.79
2019-01-31T10:57:04.175Z,99193.61
2019-01-31T11:03:10.759Z,99180.86
2019-01-31T11:08:46.488Z,99175.10
2019-01-31T11:14:17.918Z,99173.92
2019-01-31T11:20:02.793Z,99173.34
2019-01-31T11:26:04.641Z,99176.08
2019-01-31T11:31:48.410Z,99172.23
2019-01-31T11:38:02.450Z,99167.14
2019-01-31T11:44:25.982Z,99162.10
2019-01-31T11:50:27.056Z,99158.77
2019-01-31T11:55:47.809Z,99154.98
2019-01-31T12:00:46.019Z,99157.35
2019-01-31T12:05:43.295Z,99164.83
2019-01-31T12:10:41.554Z,99156.88
2019-01-31T12:15:39.084Z,99156.05
2019-01-31T12:20:36.013Z,99153.29
2019-01-31T12:25:32.676Z,99155.50
2019-01-31T12:30:30.536Z,99163.78
2019-01-31T12:35:28.348Z,99161.16
2019-01-31T12:40:26.677Z,99161.64
2019-01-31T12:45:25.283Z,99159.50
2019-01-31T12:50:25.930Z,99168.86
2019-01-31T12:55:23.353Z,99157.07
2019-01-31T13:00:29.966Z,99152.67
2019-01-31T13:05:27.060Z,99150.71
2019-01-31T13:10:26.306Z,99151.48
2019-01-31T13:15:24.529Z,99146.84
2019-01-31T13:20:22.551Z,99143.61
2019-01-31T13:25:20.988Z,99145.39
2019-01-31T13:30:21.025Z,99142.05
2019-01-31T13:35:18.853Z,99138.78
2019-01-31T13:40:20.509Z,99134.25
2019-01-31T13:45:19.250Z,99134.54
2019-01-31T13:50:19.632Z,99134.20
2019-01-31T13:55:23.818Z,99128.97
2019-01-31T14:00:21.980Z,99118.81
2019-01-31T14:05:20.100Z,99127.31
2019-01-31T14:10:22.756Z,99129.66
2019-01-31T14:15:33.046Z,99111.38
2019-01-31T14:20:27.303Z,99115.23
2019-01-31T14:25:24.960Z,99118.98
2019-01-31T14:30:35.513Z,99122.86
2019-01-31T14:35:33.273Z,99131.39
2019-01-31T14:40:29.887Z,99134.55
2019-01-31T14:45:30.099Z,99132.67
2019-01-31T14:50:32.562Z,99128.50
2019-01-31T14:55:29.011Z,99129.67
2019-01-31T15:00:28.218Z,99130.97
2019-01-31T15:05:25.903Z,99129.88
2019-01-31T15:10:23.739Z,99134.17
2019-01-31T15:15:19.563Z,99132.21
2019-01-31T15:20:34.429Z,99130.84
2019-01-31T15:25:20.858Z,99124.14
2019-01-31T15:30:21.169Z,99119.84
2019-01-31T15:35:17.696Z,99111.41
2019-01-31T15:40:18.646Z,99100.17
2019-01-31T15:45:14.782Z,99095.23
2019-01-31T15:50:12.752Z,99098.17
2019-01-31T15:55:12.408Z,99091.64
2019-01-31T16:00:17.319Z,99092.62
2019-01-31T16:05:19.104Z,99089.75
2019-01-31T16:10:10.130Z,99080.23
2019-01-31T16:15:08.241Z,99066.88
2019-01-31T16:20:04.473Z,99057.48
2019-01-31T16:25:00.378Z,99056.89
2019-01-31T16:29:56.249Z,99062.05
2019-01-31T16:34:52.991Z,99067.05
2019-01-31T16:39:48.090Z,99056.06
2019-01-31T16:44:44.790Z,99057.65
2019-01-31T16:49:44.713Z,99059.03
2019-01-31T16:54:37.754Z,99056.71
2019-01-31T16:59:30.587Z,99044.77
2019-01-31T17:04:23.511Z,99041.06
2019-01-31T17:09:16.364Z,99034.57
2019-01-31T17:14:09.266Z,99024.18
2019-01-31T17:19:02.082Z,99024.32
2019-01-31T17:23:54.939Z,99015.34
2019-01-31T17:28:47.748Z,99001.66
2019-01-31T17:33:40.598Z,99003.24
2019-01-31T17:38:33.434Z,99008.08
2019-01-31T17:43:26.245Z,99008.13
2019-01-31T17:48:19.097Z,99002.86
2019-01-31T17:53:11.908Z,98996.73
2019-01-31T17:58:05.130Z,98991.86
2019-01-31T18:02:57.952Z,98990.84
2019-01-31T18:07:50.979Z,98986.11
2019-01-31T18:12:43.809Z,98977.14
2019-01-31T18:17:36.685Z,98980.56
2019-01-31T18:22:29.504Z,98968.09
2019-01-31T18:27:22.357Z,98960.50
2019-01-31T18:32:15.187Z,98959.14
2019-01-31T18:37:08.048Z,98947.52
2019-01-31T18:42:00.918Z,98945.35
2019-01-31T18:46:53.733Z,98944.35
2019-01-31T18:51:46.680Z,98942.30
2019-01-31T18:56:39.533Z,98930.80
2019-01-31T19:01:32.447Z,98919.66
2019-01-31T19:06:25.312Z,98942.19
2019-01-31T19:11:18.373Z,98945.55
2019-01-31T19:16:11.320Z,98935.61
2019-01-31T19:21:04.384Z,98939.01
2019-01-31T19:25:57.301Z,98924.43
2019-01-31T19:30:50.197Z,98932.67
2019-01-31T19:35:43.239Z,98933.02
2019-01-31T19:40:39.284Z,98917.20
2019-01-31T19:45:38.721Z,98915.03
2019-01-31T19:50:31.563Z,98894.13
2019-01-31T19:55:24.503Z,98887.46
2019-01-31T20:00:19.401Z,98866.19
2019-01-31T20:05:13.063Z,98855.05
2019-01-31T20:10:07.254Z,98843.37
2019-01-31T20:15:00.194Z,98830.81
2019-01-31T20:19:53.038Z,98812.52
2019-01-31T20:24:46.293Z,98801.41
2019-01-31T20:29:39.248Z,98795.95
2019-01-31T20:34:32.114Z,98802.60
2019-01-31T20:39:59.643Z,98797.92
2019-01-31T20:44:52.544Z,98782.32
2019-01-31T20:49:46.081Z,98766.88
2019-01-31T20:54:41.733Z,98764.28
2019-01-31T20:59:34.624Z,98767.80
2019-01-31T21:04:33.021Z,98766.20
2019-01-31T21:09:28.590Z,98767.42
2019-01-31T21:14:20.805Z,98774.06
2019-01-31T21:19:13.739Z,98771.78
2019-01-31T21:24:06.681Z,98768.90
2019-01-31T21:29:02.537Z,98758.17
2019-01-31T21:33:57.369Z,98754.06
2019-01-31T21:38:52.431Z,98752.92
2019-01-31T21:43:48.821Z,98737.17
2019-01-31T21:48:41.671Z,98732.34
2019-01-31T21:53:36.458Z,98726.55
2019-01-31T21:58:29.284Z,98713.60
2019-01-31T22:03:22.143Z,98701.66
2019-01-31T22:08:14.990Z,98691.14
2019-01-31T22:13:07.821Z,98687.25
2019-01-31T22:18:00.848Z,98691.03
2019-01-31T22:22:54.311Z,98679.20
2019-01-31T22:27:48.129Z,98666.34
2019-01-31T22:32:40.961Z,98665.95
2019-01-31T22:37:34.296Z,98659.52
2019-01-31T22:42:27.256Z,98644.42
2019-01-31T22:47:26.208Z,98636.04
2019-01-31T22:52:14.853Z,98630.69
2019-01-31T22:57:07.671Z,98627.44
2019-01-31T23:02:06.732Z,98627.30
2019-01-31T23:06:59.544Z,98620.15
2019-01-31T23:11:52.364Z,98613.08
2019-01-31T23:16:45.216Z,98603.48
2019-01-31T23:21:48.155Z,98587.67
2019-01-31T23:26:40.974Z,98566.77
2019-01-31T23:31:33.856Z,98568.56
2019-01-31T23:36:26.810Z,98546.69
2019-01-31T23:41:19.725Z,98530.97
2019-01-31T23:46:12.644Z,98515.91
2019-01-31T23:51:07.016Z,98511.58
2019-01-31T23:56:00.913Z,98508.09
